sensor_id;sensor_type;location;lat;lon;timestamp;pressure;altitude;pressure_sealevel;temperature;humidity
42385;BME280;28042;43.986;22.860;2023-04-08T00:01:00;101538.44;;;4.91;100.00
42385;BME280;28042;43.986;22.860;2023-04-08T00:03:26;101485.47;;;4.59;100.00
42385;BME280;28042;43.986;22.860;2023-04-08T00:05:51;101499.28;;;4.66;100.00
42385;BME280;28042;43.986;22.860;2023-04-08T00:08:16;101483.06;;;4.56;100.00
42385;BME280;28042;43.986;22.860;2023-04-08T00:10:42;101487.47;;;4.57;100.00
42385;BME280;28042;43.986;22.860;2023-04-08T00:13:07;101538.44;;;4.91;100.00
42385;BME280;28042;43.986;22.860;2023-04-08T00:15:33;101488.06;;;4.61;100.00
42385;BME280;28042;43.986;22.860;2023-04-08T00:17:58;101546.00;;;4.97;100.00
42385;BME280;28042;43.986;22.860;2023-04-08T00:20:24;101493.56;;;4.69;100.00
42385;BME280;28042;43.986;22.860;2023-04-08T00:22:50;101550.66;;;4.95;100.00
42385;BME280;28042;43.986;22.860;2023-04-08T00:25:15;101532.16;;;4.71;100.00
42385;BME280;28042;43.986;22.860;2023-04-08T00:27:41;101547.59;;;4.59;100.00
42385;BME280;28042;43.986;22.860;2023-04-08T00:30:06;101551.44;;;4.57;100.00
42385;BME280;28042;43.986;22.860;2023-04-08T00:32:32;101559.41;;;4.58;100.00
42385;BME280;28042;43.986;22.860;2023-04-08T00:34:57;101561.78;;;4.51;100.00
42385;BME280;28042;43.986;22.860;2023-04-08T00:37:23;101487.72;;;4.04;100.00
42385;BME280;28042;43.986;22.860;2023-04-08T00:39:49;101547.41;;;4.41;100.00
42385;BME280;28042;43.986;22.860;2023-04-08T00:42:16;101493.28;;;4.03;100.00
42385;BME280;28042;43.986;22.860;2023-04-08T00:44:41;101546.56;;;4.41;100.00
42385;BME280;28042;43.986;22.860;2023-04-08T00:47:11;101496.13;;;4.01;100.00
42385;BME280;28042;43.986;22.860;2023-04-08T00:49:37;101541.91;;;4.12;100.00
42385;BME280;28042;43.986;22.860;2023-04-08T00:52:02;101564.41;;;4.22;100.00
42385;BME280;28042;43.986;22.860;2023-04-08T00:54:29;101548.84;;;4.05;100.00
42385;BME280;28042;43.986;22.860;2023-04-08T00:56:56;101493.41;;;3.71;100.00
42385;BME280;28042;43.986;22.860;2023-04-08T00:59:24;101515.06;;;3.90;100.00
42385;BME280;28042;43.986;22.860;2023-04-08T01:07:10;101514.88;;;4.03;100.00
42385;BME280;28042;43.986;22.860;2023-04-08T01:09:38;101505.03;;;3.92;100.00
42385;BME280;28042;43.986;22.860;2023-04-08T01:12:06;101517.16;;;4.07;100.00
42385;BME280;28042;43.986;22.860;2023-04-08T01:14:34;101561.03;;;4.30;100.00
42385;BME280;28042;43.986;22.860;2023-04-08T01:17:03;101550.19;;;4.20;100.00
42385;BME280;28042;43.986;22.860;2023-04-08T01:19:33;101498.31;;;3.86;100.00
42385;BME280;28042;43.986;22.860;2023-04-08T01:22:04;101545.84;;;4.08;100.00
42385;BME280;28042;43.986;22.860;2023-04-08T01:24:38;101549.28;;;4.10;100.00
42385;BME280;28042;43.986;22.860;2023-04-08T01:27:05;101547.84;;;4.06;100.00
42385;BME280;28042;43.986;22.860;2023-04-08T01:29:34;101490.34;;;3.85;100.00
42385;BME280;28042;43.986;22.860;2023-04-08T01:31:59;101535.69;;;4.21;100.00
42385;BME280;28042;43.986;22.860;2023-04-08T01:34:27;101542.78;;;4.22;100.00
42385;BME280;28042;43.986;22.860;2023-04-08T01:36:54;101487.50;;;3.86;100.00
42385;BME280;28042;43.986;22.860;2023-04-08T01:39:20;101553.06;;;4.29;100.00
42385;BME280;28042;43.986;22.860;2023-04-08T01:41:47;101536.78;;;4.09;100.00
42385;BME280;28042;43.986;22.860;2023-04-08T01:44:14;101527.94;;;4.07;100.00
42385;BME280;28042;43.986;22.860;2023-04-08T01:46:40;101560.03;;;4.31;100.00
42385;BME280;28042;43.986;22.860;2023-04-08T01:49:07;101456.28;;;3.84;100.00
42385;BME280;28042;43.986;22.860;2023-04-08T01:51:33;101563.75;;;4.40;100.00
42385;BME280;28042;43.986;22.860;2023-04-08T01:54:00;101507.09;;;4.09;100.00
42385;BME280;28042;43.986;22.860;2023-04-08T01:56:28;101503.00;;;4.24;100.00
42385;BME280;28042;43.986;22.860;2023-04-08T01:58:57;101501.03;;;4.27;100.00
42385;BME280;28042;43.986;22.860;2023-04-08T02:01:26;101490.50;;;4.23;100.00
42385;BME280;28042;43.986;22.860;2023-04-08T02:03:54;101551.91;;;4.62;100.00
42385;BME280;28042;43.986;22.860;2023-04-08T02:06:22;101505.72;;;4.34;100.00
42385;BME280;28042;43.986;22.860;2023-04-08T02:08:48;101505.03;;;4.42;100.00
42385;BME280;28042;43.986;22.860;2023-04-08T02:11:14;101520.56;;;4.49;100.00
42385;BME280;28042;43.986;22.860;2023-04-08T02:13:40;101557.56;;;4.59;100.00
42385;BME280;28042;43.986;22.860;2023-04-08T02:16:15;101552.91;;;4.70;100.00
42385;BME280;28042;43.986;22.860;2023-04-08T02:18:45;101514.75;;;4.44;100.00
42385;BME280;28042;43.986;22.860;2023-04-08T02:21:14;101562.72;;;4.71;100.00
42385;BME280;28042;43.986;22.860;2023-04-08T02:23:47;101559.16;;;4.61;100.00
42385;BME280;28042;43.986;22.860;2023-04-08T02:26:14;101505.00;;;4.22;100.00
42385;BME280;28042;43.986;22.860;2023-04-08T02:28:41;101552.31;;;4.57;100.00
42385;BME280;28042;43.986;22.860;2023-04-08T02:31:11;101518.44;;;4.43;100.00
42385;BME280;28042;43.986;22.860;2023-04-08T02:33:41;101517.84;;;4.40;100.00
42385;BME280;28042;43.986;22.860;2023-04-08T02:36:08;101527.97;;;4.47;100.00
42385;BME280;28042;43.986;22.860;2023-04-08T02:38:35;101557.59;;;4.68;100.00
42385;BME280;28042;43.986;22.860;2023-04-08T02:41:01;101537.38;;;4.53;100.00
42385;BME280;28042;43.986;22.860;2023-04-08T02:43:26;101526.78;;;4.40;100.00
42385;BME280;28042;43.986;22.860;2023-04-08T02:45:57;101590.00;;;4.68;100.00
42385;BME280;28042;43.986;22.860;2023-04-08T02:48:24;101582.75;;;4.69;100.00
42385;BME280;28042;43.986;22.860;2023-04-08T02:50:49;101568.22;;;4.60;100.00
42385;BME280;28042;43.986;22.860;2023-04-08T02:53:15;101530.09;;;4.44;100.00
42385;BME280;28042;43.986;22.860;2023-04-08T02:55:40;101584.19;;;4.63;100.00
42385;BME280;28042;43.986;22.860;2023-04-08T02:58:05;101585.31;;;4.61;100.00
42385;BME280;28042;43.986;22.860;2023-04-08T03:00:31;101592.69;;;4.59;100.00
42385;BME280;28042;43.986;22.860;2023-04-08T03:02:56;101573.88;;;4.47;100.00
42385;BME280;28042;43.986;22.860;2023-04-08T03:05:25;101533.09;;;4.10;100.00
42385;BME280;28042;43.986;22.860;2023-04-08T03:07:50;101539.03;;;4.04;100.00
42385;BME280;28042;43.986;22.860;2023-04-08T03:10:16;101551.66;;;4.04;100.00
42385;BME280;28042;43.986;22.860;2023-04-08T03:12:41;101607.13;;;4.38;100.00
42385;BME280;28042;43.986;22.860;2023-04-08T03:15:07;101599.00;;;4.38;100.00
42385;BME280;28042;43.986;22.860;2023-04-08T03:17:33;101606.44;;;4.46;100.00
42385;BME280;28042;43.986;22.860;2023-04-08T03:19:59;101604.75;;;4.45;100.00
42385;BME280;28042;43.986;22.860;2023-04-08T03:22:25;101597.44;;;4.36;100.00
42385;BME280;28042;43.986;22.860;2023-04-08T03:24:51;101549.53;;;4.07;100.00
42385;BME280;28042;43.986;22.860;2023-04-08T03:27:16;101609.41;;;4.43;100.00
42385;BME280;28042;43.986;22.860;2023-04-08T03:29:42;101562.03;;;4.08;100.00
42385;BME280;28042;43.986;22.860;2023-04-08T03:32:07;101564.22;;;4.14;100.00
42385;BME280;28042;43.986;22.860;2023-04-08T03:34:33;101615.97;;;4.50;100.00
42385;BME280;28042;43.986;22.860;2023-04-08T03:36:59;101560.84;;;4.22;100.00
42385;BME280;28042;43.986;22.860;2023-04-08T03:39:25;101576.09;;;4.33;100.00
42385;BME280;28042;43.986;22.860;2023-04-08T03:41:51;101622.53;;;4.57;100.00
42385;BME280;28042;43.986;22.860;2023-04-08T03:44:16;101572.69;;;4.31;100.00
42385;BME280;28042;43.986;22.860;2023-04-08T03:46:42;101578.66;;;4.34;100.00
42385;BME280;28042;43.986;22.860;2023-04-08T03:49:07;101565.84;;;4.27;100.00
42385;BME280;28042;43.986;22.860;2023-04-08T03:51:33;101553.75;;;4.21;100.00
42385;BME280;28042;43.986;22.860;2023-04-08T03:53:58;101584.06;;;4.34;100.00
42385;BME280;28042;43.986;22.860;2023-04-08T03:56:24;101579.44;;;4.15;100.00
42385;BME280;28042;43.986;22.860;2023-04-08T03:58:49;101586.00;;;4.22;100.00
42385;BME280;28042;43.986;22.860;2023-04-08T04:01:15;101642.00;;;4.51;100.00
42385;BME280;28042;43.986;22.860;2023-04-08T04:03:40;101614.22;;;4.39;100.00
42385;BME280;28042;43.986;22.860;2023-04-08T04:06:06;101643.56;;;4.44;100.00
42385;BME280;28042;43.986;22.860;2023-04-08T04:08:31;101637.50;;;4.31;100.00
42385;BME280;28042;43.986;22.860;2023-04-08T04:11:00;101590.59;;;4.01;100.00
42385;BME280;28042;43.986;22.860;2023-04-08T04:13:25;101577.63;;;3.95;100.00
42385;BME280;28042;43.986;22.860;2023-04-08T04:15:51;101600.84;;;4.07;100.00
42385;BME280;28042;43.986;22.860;2023-04-08T04:18:16;101595.00;;;4.02;100.00
42385;BME280;28042;43.986;22.860;2023-04-08T04:20:42;101577.63;;;3.95;100.00
42385;BME280;28042;43.986;22.860;2023-04-08T04:23:08;101629.53;;;4.29;100.00
42385;BME280;28042;43.986;22.860;2023-04-08T04:25:34;101634.94;;;4.29;100.00
42385;BME280;28042;43.986;22.860;2023-04-08T04:27:59;101583.88;;;3.95;100.00
42385;BME280;28042;43.986;22.860;2023-04-08T04:30:26;101641.66;;;4.14;100.00
42385;BME280;28042;43.986;22.860;2023-04-08T04:32:52;101572.13;;;3.76;100.00
42385;BME280;28042;43.986;22.860;2023-04-08T04:35:17;101582.63;;;3.79;100.00
42385;BME280;28042;43.986;22.860;2023-04-08T04:37:43;101573.50;;;3.70;100.00
42385;BME280;28042;43.986;22.860;2023-04-08T04:40:08;101646.97;;;4.25;100.00
42385;BME280;28042;43.986;22.860;2023-04-08T04:42:34;101577.56;;;3.85;100.00
42385;BME280;28042;43.986;22.860;2023-04-08T04:45:00;101650.53;;;4.25;100.00
42385;BME280;28042;43.986;22.860;2023-04-08T04:47:25;101645.59;;;4.31;100.00
42385;BME280;28042;43.986;22.860;2023-04-08T04:49:51;101597.34;;;4.16;100.00
42385;BME280;28042;43.986;22.860;2023-04-08T04:52:16;101652.88;;;4.61;100.00
42385;BME280;28042;43.986;22.860;2023-04-08T04:54:42;101581.78;;;4.30;100.00
42385;BME280;28042;43.986;22.860;2023-04-08T04:57:08;101653.34;;;4.75;100.00
42385;BME280;28042;43.986;22.860;2023-04-08T04:59:35;101650.06;;;4.72;100.00
42385;BME280;28042;43.986;22.860;2023-04-08T05:02:01;101639.06;;;4.64;100.00
42385;BME280;28042;43.986;22.860;2023-04-08T05:04:26;101645.25;;;4.85;100.00
42385;BME280;28042;43.986;22.860;2023-04-08T05:06:52;101649.97;;;4.93;100.00
42385;BME280;28042;43.986;22.860;2023-04-08T05:09:17;101649.72;;;4.96;100.00
42385;BME280;28042;43.986;22.860;2023-04-08T05:11:42;101589.69;;;4.52;100.00
42385;BME280;28042;43.986;22.860;2023-04-08T05:14:08;101581.84;;;4.49;100.00
42385;BME280;28042;43.986;22.860;2023-04-08T05:16:33;101652.38;;;4.86;100.00
42385;BME280;28042;43.986;22.860;2023-04-08T05:18:59;101584.59;;;4.68;100.00
42385;BME280;28042;43.986;22.860;2023-04-08T05:21:25;101588.94;;;4.80;100.00
42385;BME280;28042;43.986;22.860;2023-04-08T05:23:52;101588.78;;;4.92;100.00
42385;BME280;28042;43.986;22.860;2023-04-08T05:26:19;101599.22;;;5.06;100.00
42385;BME280;28042;43.986;22.860;2023-04-08T05:28:46;101624.44;;;5.16;100.00
42385;BME280;28042;43.986;22.860;2023-04-08T05:31:14;101595.06;;;4.92;100.00
42385;BME280;28042;43.986;22.860;2023-04-08T05:33:39;101592.53;;;5.10;100.00
42385;BME280;28042;43.986;22.860;2023-04-08T05:36:05;101643.28;;;5.56;100.00
42385;BME280;28042;43.986;22.860;2023-04-08T05:38:31;101583.16;;;5.14;100.00
42385;BME280;28042;43.986;22.860;2023-04-08T05:40:56;101645.81;;;5.67;100.00
42385;BME280;28042;43.986;22.860;2023-04-08T05:43:21;101575.19;;;5.22;100.00
42385;BME280;28042;43.986;22.860;2023-04-08T05:45:47;101616.19;;;5.47;100.00
42385;BME280;28042;43.986;22.860;2023-04-08T05:48:12;101620.19;;;5.52;100.00
42385;BME280;28042;43.986;22.860;2023-04-08T05:50:38;101604.25;;;5.39;100.00
42385;BME280;28042;43.986;22.860;2023-04-08T05:53:03;101590.81;;;5.28;100.00
42385;BME280;28042;43.986;22.860;2023-04-08T05:55:29;101665.47;;;5.79;100.00
42385;BME280;28042;43.986;22.860;2023-04-08T05:57:54;101653.50;;;5.72;100.00
42385;BME280;28042;43.986;22.860;2023-04-08T06:00:20;101599.94;;;5.47;100.00
42385;BME280;28042;43.986;22.860;2023-04-08T06:02:47;101657.22;;;5.90;100.00
42385;BME280;28042;43.986;22.860;2023-04-08T06:05:13;101662.38;;;5.93;100.00
42385;BME280;28042;43.986;22.860;2023-04-08T06:07:38;101641.56;;;5.94;100.00
42385;BME280;28042;43.986;22.860;2023-04-08T06:10:04;101611.94;;;5.92;100.00
42385;BME280;28042;43.986;22.860;2023-04-08T06:12:34;101650.09;;;6.09;100.00
42385;BME280;28042;43.986;22.860;2023-04-08T06:15:00;101649.22;;;6.18;100.00
42385;BME280;28042;43.986;22.860;2023-04-08T06:17:25;101587.81;;;6.09;100.00
42385;BME280;28042;43.986;22.860;2023-04-08T06:19:51;101595.28;;;6.34;100.00
42385;BME280;28042;43.986;22.860;2023-04-08T06:22:16;101582.66;;;6.53;100.00
42385;BME280;28042;43.986;22.860;2023-04-08T06:24:42;101618.78;;;6.71;100.00
42385;BME280;28042;43.986;22.860;2023-04-08T06:27:07;101638.25;;;7.12;100.00
42385;BME280;28042;43.986;22.860;2023-04-08T06:29:33;101653.50;;;7.40;100.00
42385;BME280;28042;43.986;22.860;2023-04-08T06:31:58;101651.34;;;7.61;100.00
42385;BME280;28042;43.986;22.860;2023-04-08T06:34:24;101603.06;;;7.55;100.00
42385;BME280;28042;43.986;22.860;2023-04-08T06:36:50;101594.88;;;7.47;100.00
42385;BME280;28042;43.986;22.860;2023-04-08T06:39:15;101653.66;;;7.92;100.00
42385;BME280;28042;43.986;22.860;2023-04-08T06:41:41;101647.69;;;8.14;100.00
42385;BME280;28042;43.986;22.860;2023-04-08T06:44:07;101593.75;;;7.76;100.00
42385;BME280;28042;43.986;22.860;2023-04-08T06:46:33;101645.00;;;7.97;100.00
42385;BME280;28042;43.986;22.860;2023-04-08T06:48:58;101655.50;;;8.09;100.00
42385;BME280;28042;43.986;22.860;2023-04-08T06:51:24;101611.22;;;7.99;100.00
42385;BME280;28042;43.986;22.860;2023-04-08T06:53:49;101653.06;;;8.50;100.00
42385;BME280;28042;43.986;22.860;2023-04-08T06:56:15;101654.75;;;8.51;98.66
42385;BME280;28042;43.986;22.860;2023-04-08T06:58:41;101640.44;;;8.41;100.00
42385;BME280;28042;43.986;22.860;2023-04-08T07:01:06;101599.00;;;7.95;100.00
42385;BME280;28042;43.986;22.860;2023-04-08T07:03:31;101604.00;;;7.82;100.00
42385;BME280;28042;43.986;22.860;2023-04-08T07:05:57;101596.44;;;8.19;100.00
42385;BME280;28042;43.986;22.860;2023-04-08T07:08:22;101616.84;;;8.23;98.28
42385;BME280;28042;43.986;22.860;2023-04-08T07:10:48;101643.34;;;8.21;99.19
42385;BME280;28042;43.986;22.860;2023-04-08T07:13:13;101637.63;;;8.07;100.00
42385;BME280;28042;43.986;22.860;2023-04-08T07:15:40;101667.69;;;8.49;100.00
42385;BME280;28042;43.986;22.860;2023-04-08T07:18:05;101617.13;;;8.12;97.71
42385;BME280;28042;43.986;22.860;2023-04-08T07:20:31;101605.66;;;8.27;97.42
42385;BME280;28042;43.986;22.860;2023-04-08T07:22:56;101634.25;;;8.57;96.29
42385;BME280;28042;43.986;22.860;2023-04-08T07:25:22;101657.69;;;8.92;93.05
42385;BME280;28042;43.986;22.860;2023-04-08T07:27:47;101648.22;;;8.96;90.89
42385;BME280;28042;43.986;22.860;2023-04-08T07:30:13;101657.56;;;9.01;90.41
42385;BME280;28042;43.986;22.860;2023-04-08T07:32:38;101592.09;;;9.03;86.95
42385;BME280;28042;43.986;22.860;2023-04-08T07:35:04;101638.28;;;9.37;82.10
42385;BME280;28042;43.986;22.860;2023-04-08T07:37:30;101651.22;;;9.43;80.12
42385;BME280;28042;43.986;22.860;2023-04-08T07:39:56;101603.38;;;9.24;82.84
42385;BME280;28042;43.986;22.860;2023-04-08T07:42:21;101606.75;;;9.10;82.89
42385;BME280;28042;43.986;22.860;2023-04-08T07:44:47;101590.81;;;9.40;82.30
42385;BME280;28042;43.986;22.860;2023-04-08T07:47:12;101611.38;;;9.26;79.75
42385;BME280;28042;43.986;22.860;2023-04-08T07:49:38;101675.44;;;9.62;77.59
42385;BME280;28042;43.986;22.860;2023-04-08T07:52:05;101658.41;;;9.60;75.25
42385;BME280;28042;43.986;22.860;2023-04-08T07:54:31;101607.97;;;9.24;76.85
42385;BME280;28042;43.986;22.860;2023-04-08T07:56:58;101620.63;;;8.91;77.84
42385;BME280;28042;43.986;22.860;2023-04-08T07:59:24;101673.34;;;9.32;79.77
42385;BME280;28042;43.986;22.860;2023-04-08T08:01:50;101625.88;;;9.43;79.88
42385;BME280;28042;43.986;22.860;2023-04-08T08:04:15;101630.69;;;9.57;77.00
42385;BME280;28042;43.986;22.860;2023-04-08T08:06:41;101674.22;;;9.41;78.67
42385;BME280;28042;43.986;22.860;2023-04-08T08:09:06;101615.13;;;9.25;79.83
42385;BME280;28042;43.986;22.860;2023-04-08T08:11:32;101611.94;;;9.62;78.67
42385;BME280;28042;43.986;22.860;2023-04-08T08:13:57;101626.06;;;9.90;73.01
42385;BME280;28042;43.986;22.860;2023-04-08T08:16:23;101619.09;;;9.79;70.76
42385;BME280;28042;43.986;22.860;2023-04-08T08:18:51;101630.00;;;9.96;72.20
42385;BME280;28042;43.986;22.860;2023-04-08T08:21:17;101635.25;;;10.05;71.73
42385;BME280;28042;43.986;22.860;2023-04-08T08:23:42;101680.09;;;10.52;73.27
42385;BME280;28042;43.986;22.860;2023-04-08T08:26:09;101666.97;;;10.23;71.15
42385;BME280;28042;43.986;22.860;2023-04-08T08:28:35;101635.28;;;9.89;71.59
42385;BME280;28042;43.986;22.860;2023-04-08T08:31:00;101629.31;;;9.85;72.00
42385;BME280;28042;43.986;22.860;2023-04-08T08:33:30;101629.31;;;9.69;70.63
42385;BME280;28042;43.986;22.860;2023-04-08T08:35:56;101633.41;;;9.89;71.64
42385;BME280;28042;43.986;22.860;2023-04-08T08:38:23;101612.97;;;9.77;70.36
42385;BME280;28042;43.986;22.860;2023-04-08T08:40:59;101684.19;;;10.23;70.54
42385;BME280;28042;43.986;22.860;2023-04-08T08:43:25;101687.94;;;10.46;69.88
42385;BME280;28042;43.986;22.860;2023-04-08T08:45:51;101682.13;;;10.50;70.86
42385;BME280;28042;43.986;22.860;2023-04-08T08:48:17;101620.97;;;10.36;70.08
42385;BME280;28042;43.986;22.860;2023-04-08T08:50:42;101625.88;;;10.16;67.51
42385;BME280;28042;43.986;22.860;2023-04-08T08:53:08;101619.75;;;10.06;67.61
42385;BME280;28042;43.986;22.860;2023-04-08T08:55:34;101615.00;;;10.00;68.29
42385;BME280;28042;43.986;22.860;2023-04-08T08:58:00;101684.81;;;10.58;68.36
42385;BME280;28042;43.986;22.860;2023-04-08T09:00:44;101633.28;;;10.79;67.47
42385;BME280;28042;43.986;22.860;2023-04-08T09:03:26;101689.50;;;10.96;66.03
42385;BME280;28042;43.986;22.860;2023-04-08T09:06:00;101624.69;;;10.90;66.13
42385;BME280;28042;43.986;22.860;2023-04-08T09:08:30;101619.13;;;10.67;65.10
42385;BME280;28042;43.986;22.860;2023-04-08T09:11:19;101678.97;;;11.24;63.22
42385;BME280;28042;43.986;22.860;2023-04-08T09:13:48;101691.53;;;11.73;62.15
42385;BME280;28042;43.986;22.860;2023-04-08T09:16:15;101657.13;;;11.55;60.26
42385;BME280;28042;43.986;22.860;2023-04-08T09:18:42;101638.66;;;11.57;60.18
42385;BME280;28042;43.986;22.860;2023-04-08T09:21:09;101633.75;;;11.22;61.35
42385;BME280;28042;43.986;22.860;2023-04-08T09:23:50;101674.16;;;11.88;61.21
42385;BME280;28042;43.986;22.860;2023-04-08T09:26:17;101676.22;;;12.09;61.15
42385;BME280;28042;43.986;22.860;2023-04-08T09:29:02;101673.69;;;12.75;59.52
42385;BME280;28042;43.986;22.860;2023-04-08T09:31:30;101673.69;;;11.85;59.36
42385;BME280;28042;43.986;22.860;2023-04-08T09:33:57;101628.19;;;11.61;61.13
42385;BME280;28042;43.986;22.860;2023-04-08T09:36:24;101684.47;;;11.55;61.56
42385;BME280;28042;43.986;22.860;2023-04-08T09:38:51;101666.34;;;11.85;61.52
42385;BME280;28042;43.986;22.860;2023-04-08T09:41:18;101663.09;;;12.05;60.66
42385;BME280;28042;43.986;22.860;2023-04-08T09:43:55;101669.66;;;12.19;61.25
42385;BME280;28042;43.986;22.860;2023-04-08T09:49:33;101675.72;;;12.06;61.66
42385;BME280;28042;43.986;22.860;2023-04-08T09:54:54;101665.63;;;12.29;61.61
42385;BME280;28042;43.986;22.860;2023-04-08T09:57:50;101681.97;;;12.14;60.69
42385;BME280;28042;43.986;22.860;2023-04-08T10:00:17;101673.84;;;12.06;61.78
42385;BME280;28042;43.986;22.860;2023-04-08T10:05:37;101671.19;;;11.44;63.87
42385;BME280;28042;43.986;22.860;2023-04-08T10:08:05;101622.63;;;11.77;62.54
42385;BME280;28042;43.986;22.860;2023-04-08T10:10:33;101637.06;;;11.40;62.53
42385;BME280;28042;43.986;22.860;2023-04-08T10:12:59;101674.66;;;11.92;62.12
42385;BME280;28042;43.986;22.860;2023-04-08T10:15:28;101666.09;;;12.33;61.36
42385;BME280;28042;43.986;22.860;2023-04-08T10:20:47;101608.13;;;12.14;62.65
42385;BME280;28042;43.986;22.860;2023-04-08T10:23:16;101662.19;;;12.80;59.83
42385;BME280;28042;43.986;22.860;2023-04-08T10:25:46;101676.13;;;12.55;61.01
42385;BME280;28042;43.986;22.860;2023-04-08T10:33:29;101599.75;;;13.05;58.84
42385;BME280;28042;43.986;22.860;2023-04-08T10:38:40;101608.00;;;12.60;58.50
42385;BME280;28042;43.986;22.860;2023-04-08T10:41:09;101611.00;;;12.95;59.24
42385;BME280;28042;43.986;22.860;2023-04-08T10:43:36;101627.59;;;13.08;57.96
42385;BME280;28042;43.986;22.860;2023-04-08T10:46:02;101561.97;;;12.85;56.15
42385;BME280;28042;43.986;22.860;2023-04-08T10:48:29;101641.91;;;13.40;56.16
42385;BME280;28042;43.986;22.860;2023-04-08T10:50:59;101587.53;;;13.22;56.02
42385;BME280;28042;43.986;22.860;2023-04-08T10:53:32;101643.72;;;13.90;55.04
42385;BME280;28042;43.986;22.860;2023-04-08T10:56:11;101648.91;;;14.06;54.69
42385;BME280;28042;43.986;22.860;2023-04-08T10:58:54;101597.47;;;13.87;54.75
42385;BME280;28042;43.986;22.860;2023-04-08T11:01:24;101602.38;;;13.49;54.15
42385;BME280;28042;43.986;22.860;2023-04-08T11:03:50;101649.31;;;13.24;55.16
42385;BME280;28042;43.986;22.860;2023-04-08T11:06:16;101640.91;;;13.26;56.47
42385;BME280;28042;43.986;22.860;2023-04-08T11:08:42;101599.94;;;13.03;55.90
42385;BME280;28042;43.986;22.860;2023-04-08T11:11:11;101584.81;;;13.43;54.10
42385;BME280;28042;43.986;22.860;2023-04-08T11:13:42;101631.63;;;13.84;53.33
42385;BME280;28042;43.986;22.860;2023-04-08T11:16:09;101575.28;;;13.82;53.63
42385;BME280;28042;43.986;22.860;2023-04-08T11:18:38;101603.38;;;14.12;52.68
42385;BME280;28042;43.986;22.860;2023-04-08T11:21:08;101639.69;;;14.14;50.87
42385;BME280;28042;43.986;22.860;2023-04-08T11:23:36;101589.84;;;13.40;52.09
42385;BME280;28042;43.986;22.860;2023-04-08T11:26:02;101632.00;;;14.03;51.64
42385;BME280;28042;43.986;22.860;2023-04-08T11:28:28;101592.69;;;13.96;50.56
42385;BME280;28042;43.986;22.860;2023-04-08T11:30:54;101615.91;;;14.21;50.92
42385;BME280;28042;43.986;22.860;2023-04-08T11:33:20;101569.91;;;13.95;51.23
42385;BME280;28042;43.986;22.860;2023-04-08T11:35:49;101573.09;;;13.99;50.73
42385;BME280;28042;43.986;22.860;2023-04-08T11:38:16;101636.72;;;14.37;49.37
42385;BME280;28042;43.986;22.860;2023-04-08T11:40:57;101564.50;;;13.80;48.23
42385;BME280;28042;43.986;22.860;2023-04-08T11:43:23;101583.53;;;14.10;48.08
42385;BME280;28042;43.986;22.860;2023-04-08T11:45:49;101590.41;;;14.27;49.76
42385;BME280;28042;43.986;22.860;2023-04-08T11:48:15;101565.00;;;14.47;48.40
42385;BME280;28042;43.986;22.860;2023-04-08T11:50:42;101624.00;;;14.57;48.35
42385;BME280;28042;43.986;22.860;2023-04-08T11:53:20;101626.69;;;14.51;49.77
42385;BME280;28042;43.986;22.860;2023-04-08T11:55:46;101555.97;;;13.97;48.72
42385;BME280;28042;43.986;22.860;2023-04-08T11:58:13;101619.34;;;13.59;50.48
42385;BME280;28042;43.986;22.860;2023-04-08T12:00:38;101608.50;;;13.72;51.43
42385;BME280;28042;43.986;22.860;2023-04-08T12:03:05;101600.56;;;13.20;52.81
42385;BME280;28042;43.986;22.860;2023-04-08T12:05:30;101554.13;;;12.97;53.13
42385;BME280;28042;43.986;22.860;2023-04-08T12:07:56;101600.53;;;13.35;53.09
42385;BME280;28042;43.986;22.860;2023-04-08T12:10:21;101556.84;;;13.48;52.45
42385;BME280;28042;43.986;22.860;2023-04-08T12:12:49;101550.47;;;13.11;53.11
42385;BME280;28042;43.986;22.860;2023-04-08T12:15:15;101559.47;;;13.63;52.58
42385;BME280;28042;43.986;22.860;2023-04-08T12:17:40;101595.34;;;14.10;52.14
42385;BME280;28042;43.986;22.860;2023-04-08T12:20:08;101536.06;;;13.60;52.65
42385;BME280;28042;43.986;22.860;2023-04-08T12:22:34;101564.47;;;14.02;51.59
42385;BME280;28042;43.986;22.860;2023-04-08T12:25:00;101537.44;;;13.99;51.60
42385;BME280;28042;43.986;22.860;2023-04-08T12:27:27;101538.38;;;13.84;53.58
42385;BME280;28042;43.986;22.860;2023-04-08T12:29:53;101567.66;;;14.05;53.90
42385;BME280;28042;43.986;22.860;2023-04-08T12:32:19;101562.78;;;14.01;54.09
42385;BME280;28042;43.986;22.860;2023-04-08T12:34:45;101511.59;;;13.86;53.46
42385;BME280;28042;43.986;22.860;2023-04-08T12:37:11;101561.16;;;13.64;54.67
42385;BME280;28042;43.986;22.860;2023-04-08T12:39:37;101548.13;;;13.66;54.44
42385;BME280;28042;43.986;22.860;2023-04-08T12:42:03;101552.38;;;13.68;55.71
42385;BME280;28042;43.986;22.860;2023-04-08T12:44:29;101554.91;;;13.70;54.30
42385;BME280;28042;43.986;22.860;2023-04-08T12:46:54;101560.91;;;13.37;53.91
42385;BME280;28042;43.986;22.860;2023-04-08T12:49:22;101557.31;;;13.37;54.31
42385;BME280;28042;43.986;22.860;2023-04-08T12:51:47;101503.81;;;13.19;54.95
42385;BME280;28042;43.986;22.860;2023-04-08T12:54:13;101506.13;;;13.01;55.17
42385;BME280;28042;43.986;22.860;2023-04-08T12:56:38;101543.03;;;13.20;55.81
42385;BME280;28042;43.986;22.860;2023-04-08T12:59:04;101552.22;;;13.55;55.87
42385;BME280;28042;43.986;22.860;2023-04-08T13:01:29;101537.59;;;13.69;53.91
42385;BME280;28042;43.986;22.860;2023-04-08T13:03:55;101480.41;;;13.38;53.37